createdAt,value
2022-10-07T11:01:43.448Z,15.00
2022-10-07T11:03:52.475Z,17.00
2022-10-07T11:05:30.696Z,16.60
2022-10-07T11:07:37.892Z,18.20
2022-10-07T11:09:17.450Z,92.25
2022-10-07T11:10:57.778Z,61.20
2022-10-07T11:12:31.523Z,39.75
2022-10-07T11:14:17.673Z,36.50
2022-10-07T11:16:25.324Z,31.80
2022-10-07T11:17:59.837Z,29.60
2022-10-07T11:19:40.678Z,32.80
2022-10-07T11:21:16.813Z,30.20
2022-10-07T11:22:53.556Z,31.20
2022-10-07T11:24:40.775Z,30.80
2022-10-07T11:26:15.604Z,32.40
2022-10-07T11:27:48.632Z,31.20
2022-10-07T11:29:31.441Z,35.00
2022-10-07T11:31:24.240Z,30.40
2022-10-07T11:32:59.268Z,31.60
2022-10-07T11:34:54.332Z,29.80
2022-10-07T11:36:37.398Z,28.40
2022-10-07T11:38:14.591Z,36.60
2022-10-07T11:39:53.506Z,32.60
2022-10-07T11:41:33.533Z,31.20
2022-10-07T11:43:09.093Z,29.40
2022-10-07T11:45:01.744Z,33.60
2022-10-07T11:46:38.622Z,32.60
2022-10-07T11:48:14.709Z,33.60
2022-10-07T11:49:57.824Z,32.00
2022-10-07T11:51:41.912Z,33.20
2022-10-07T11:53:21.285Z,33.40
2022-10-07T11:55:11.688Z,33.20
2022-10-07T11:56:50.521Z,34.20
2022-10-07T11:58:31.687Z,33.60
2022-10-07T12:00:22.807Z,34.00
2022-10-07T12:01:55.192Z,34.20
2022-10-07T12:03:33.705Z,34.20
2022-10-07T12:05:07.966Z,39.00
2022-10-07T12:06:39.614Z,36.00
2022-10-07T12:08:11.345Z,40.00
2022-10-07T12:10:23.300Z,36.00
2022-10-07T12:11:55.075Z,39.75
2022-10-07T12:13:36.601Z,51.25
2022-10-07T12:15:27.233Z,43.75
2022-10-07T12:16:59.031Z,44.00
2022-10-07T12:18:30.847Z,47.75
2022-10-07T12:20:46.543Z,57.25
2022-10-07T12:22:18.421Z,45.00
2022-10-07T12:23:58.899Z,56.75
2022-10-07T12:25:36.865Z,52.75
2022-10-07T12:27:23.514Z,41.50
2022-10-07T12:28:57.396Z,47.00
2022-10-07T12:30:42.305Z,52.50
2022-10-07T12:32:46.704Z,45.50
2022-10-07T12:34:35.691Z,50.75
2022-10-07T12:36:22.487Z,50.50
2022-10-07T12:38:11.024Z,46.75
2022-10-07T12:39:42.828Z,43.25
2022-10-07T12:41:29.560Z,44.25
2022-10-07T12:43:10.777Z,46.50
2022-10-07T12:44:52.618Z,48.50
2022-10-07T12:46:24.518Z,47.00
2022-10-07T12:47:57.306Z,48.25
2022-10-07T12:49:38.316Z,49.00
2022-10-07T12:51:32.414Z,45.75
2022-10-07T12:53:04.224Z,50.50
2022-10-07T12:54:53.709Z,50.75
2022-10-07T12:56:29.654Z,54.75
2022-10-07T12:58:19.986Z,53.25
2022-10-07T13:00:23.281Z,104.00
2022-10-07T13:01:57.989Z,135.50
2022-10-07T13:03:38.774Z,115.25
2022-10-07T13:05:22.566Z,79.00
2022-10-07T13:07:20.496Z,74.20
2022-10-07T13:09:23.471Z,63.75
2022-10-07T13:11:01.243Z,64.75
2022-10-07T13:12:54.317Z,63.00
2022-10-07T13:14:28.024Z,60.50
2022-10-07T13:16:04.222Z,53.00
2022-10-07T13:17:44.761Z,64.00
2022-10-07T13:19:19.199Z,65.00
2022-10-07T13:21:08.381Z,64.75
2022-10-07T13:22:46.767Z,62.50
2022-10-07T13:24:23.537Z,64.00
2022-10-07T13:25:56.401Z,64.75
2022-10-07T13:27:32.110Z,65.75
2022-10-07T13:29:03.939Z,68.50
2022-10-07T13:30:41.828Z,66.50
2022-10-07T13:32:18.084Z,59.25
2022-10-07T13:33:50.289Z,64.25
2022-10-07T13:35:36.223Z,67.50
2022-10-07T13:37:28.507Z,69.00
2022-10-07T13:39:18.607Z,64.75
2022-10-07T13:41:05.271Z,60.75
2022-10-07T13:42:37.036Z,63.25
2022-10-07T13:44:10.104Z,67.00
2022-10-07T13:45:45.129Z,60.50
2022-10-07T13:47:19.416Z,65.75
2022-10-07T13:48:51.203Z,62.50
2022-10-07T13:50:29.171Z,64.50
2022-10-07T13:52:02.380Z,66.00
2022-10-07T13:53:35.416Z,58.50
2022-10-07T13:55:21.117Z,64.00
2022-10-07T13:56:53.300Z,68.75
2022-10-07T13:58:25.068Z,66.75
2022-10-07T13:59:56.811Z,68.75
2022-10-07T14:01:30.586Z,67.25
2022-10-07T14:03:02.428Z,62.25
2022-10-07T14:04:34.257Z,63.50
2022-10-07T14:06:06.057Z,66.00
2022-10-07T14:07:41.762Z,68.00
2022-10-07T14:09:37.059Z,68.50
2022-10-07T14:11:16.533Z,67.50
2022-10-07T14:12:51.373Z,64.75
2022-10-07T14:14:25.401Z,89.50
2022-10-07T14:15:57.653Z,76.60
2022-10-07T14:17:47.506Z,66.40
2022-10-07T14:19:21.932Z,67.00
2022-10-07T14:20:55.500Z,67.20
2022-10-07T14:22:31.845Z,60.50
2022-10-07T14:24:08.831Z,63.25
2022-10-07T14:25:54.272Z,65.50
2022-10-07T14:27:44.527Z,54.50
2022-10-07T14:29:42.165Z,54.00
2022-10-07T14:31:39.247Z,44.75
2022-10-07T14:33:33.566Z,54.75
2022-10-07T14:35:18.531Z,43.25
2022-10-07T14:37:31.553Z,48.75
2022-10-07T14:39:22.692Z,35.60
2022-10-07T14:40:54.490Z,34.60
2022-10-07T14:42:27.441Z,37.00
2022-10-07T14:44:00.244Z,34.20
2022-10-07T14:45:32.210Z,34.40
2022-10-07T14:47:04.105Z,34.20
2022-10-07T14:48:36.231Z,33.20
2022-10-07T14:50:08.294Z,33.20
2022-10-07T14:51:40.079Z,32.40
2022-10-07T14:53:13.219Z,33.20
2022-10-07T14:54:44.967Z,31.20
2022-10-07T14:56:24.677Z,33.40
2022-10-07T14:57:56.461Z,31.20
2022-10-07T14:59:28.232Z,33.00
2022-10-07T15:01:00.354Z,31.60
2022-10-07T15:02:32.110Z,32.20
2022-10-07T15:04:03.989Z,32.60
2022-10-07T15:05:35.876Z,31.00
2022-10-07T15:07:07.710Z,29.80
2022-10-07T15:08:39.471Z,29.20
2022-10-07T15:10:23.334Z,31.00
2022-10-07T15:11:56.226Z,30.80
2022-10-07T15:13:29.198Z,31.00
2022-10-07T15:15:00.899Z,31.40
2022-10-07T15:16:32.927Z,29.20
2022-10-07T15:18:07.075Z,32.00
2022-10-07T15:19:38.818Z,29.40
2022-10-07T15:21:10.525Z,27.80
2022-10-07T15:22:42.434Z,29.00
2022-10-07T15:24:14.204Z,29.20
2022-10-07T15:25:46.243Z,28.20
2022-10-07T15:27:19.248Z,26.40
2022-10-07T15:28:55.002Z,28.20
2022-10-07T15:30:28.394Z,27.40
2022-10-07T15:32:00.132Z,27.60
2022-10-07T15:33:32.295Z,28.20
2022-10-07T15:35:04.277Z,26.40
2022-10-07T15:36:36.210Z,28.20
2022-10-07T15:38:07.897Z,27.20
2022-10-07T15:39:40.027Z,28.20
2022-10-07T15:41:28.265Z,28.80
2022-10-07T15:43:01.032Z,28.20
2022-10-07T15:44:32.774Z,28.20
2022-10-07T15:46:04.652Z,24.40
2022-10-07T15:47:36.630Z,24.60
2022-10-07T15:49:08.484Z,25.60
2022-10-07T15:50:50.734Z,23.20
2022-10-07T15:52:22.814Z,27.20
2022-10-07T15:53:54.658Z,27.40
2022-10-07T15:55:26.335Z,27.00
2022-10-07T15:56:58.922Z,24.20
2022-10-07T15:58:30.708Z,25.00
2022-10-07T16:00:03.029Z,28.80
2022-10-07T16:01:44.305Z,26.60
2022-10-07T16:03:17.355Z,28.00
2022-10-07T16:04:49.265Z,25.80
2022-10-07T16:06:22.352Z,23.20
2022-10-07T16:07:54.238Z,23.40
2022-10-07T16:09:25.970Z,23.00
2022-10-07T16:11:03.398Z,20.00
2022-10-07T16:12:35.111Z,20.20
2022-10-07T16:14:12.243Z,19.60
2022-10-07T16:15:44.252Z,22.40
2022-10-07T16:17:16.022Z,21.60
2022-10-07T16:18:48.520Z,21.00
2022-10-07T16:20:20.481Z,20.00
2022-10-07T16:21:52.342Z,20.60
2022-10-07T16:23:24.462Z,19.40
2022-10-07T16:24:56.409Z,12.20
2022-10-07T16:26:30.161Z,18.40
2022-10-07T16:28:20.363Z,18.20
2022-10-07T16:30:10.568Z,19.20
2022-10-07T16:31:42.933Z,18.80
2022-10-07T16:33:14.749Z,17.00
2022-10-07T16:34:47.000Z,18.60
2022-10-07T16:36:20.848Z,16.80
2022-10-07T16:37:52.925Z,17.20
2022-10-07T16:39:25.038Z,15.60
2022-10-07T16:40:56.766Z,17.20
2022-10-07T16:42:29.465Z,17.00
2022-10-07T16:44:01.766Z,19.20
2022-10-07T16:45:33.471Z,17.40
2022-10-07T16:47:05.319Z,16.60
2022-10-07T16:48:41.869Z,15.40
2022-10-07T16:50:13.563Z,14.60
2022-10-07T16:51:46.484Z,13.80
2022-10-07T16:53:18.322Z,15.80
2022-10-07T16:54:50.040Z,16.00
2022-10-07T16:56:21.797Z,14.40
2022-10-07T16:57:53.611Z,16.00
2022-10-07T16:59:25.603Z,17.20
2022-10-07T17:01:09.759Z,10.00
2022-10-07T17:02:41.514Z,16.80
2022-10-07T17:04:13.295Z,16.00
2022-10-07T17:05:45.091Z,15.40
2022-10-07T17:07:16.964Z,17.20
2022-10-07T17:08:49.116Z,16.20
2022-10-07T17:10:21.277Z,16.40
2022-10-07T17:11:53.042Z,14.40
2022-10-07T17:13:24.820Z,16.80
2022-10-07T17:14:56.536Z,12.60
2022-10-07T17:16:29.782Z,15.40
2022-10-07T17:18:01.563Z,13.80
2022-10-07T17:19:34.404Z,11.80
2022-10-07T17:21:06.264Z,14.20
2022-10-07T17:22:37.958Z,17.60
2022-10-07T17:24:10.001Z,14.20
2022-10-07T17:25:42.067Z,13.40
2022-10-07T17:27:14.645Z,8.40
2022-10-07T17:28:49.916Z,15.80
2022-10-07T17:30:21.676Z,13.80
2022-10-07T17:31:53.619Z,14.00
2022-10-07T17:33:25.416Z,14.40
2022-10-07T17:34:57.107Z,15.00
2022-10-07T17:36:28.965Z,15.20
2022-10-07T17:38:01.326Z,12.40
2022-10-07T17:39:33.027Z,14.60
2022-10-07T17:41:17.754Z,13.40
2022-10-07T17:42:49.523Z,14.00
2022-10-07T17:44:21.584Z,13.00
2022-10-07T17:45:53.269Z,12.00
2022-10-07T17:47:25.125Z,16.00
2022-10-07T17:48:58.062Z,15.40
2022-10-07T17:50:30.835Z,15.20
2022-10-07T17:52:02.842Z,14.40
2022-10-07T17:53:35.457Z,14.00
2022-10-07T17:55:07.663Z,14.60
2022-10-07T17:56:39.599Z,13.60
2022-10-07T17:58:11.303Z,12.20
2022-10-07T17:59:43.332Z,15.00
2022-10-07T18:01:18.910Z,12.40
2022-10-07T18:02:50.960Z,15.00
2022-10-07T18:04:25.215Z,15.00
2022-10-07T18:05:57.328Z,14.80
2022-10-07T18:07:29.291Z,15.40
2022-10-07T18:09:04.690Z,14.80
2022-10-07T18:10:38.310Z,16.00
2022-10-07T18:12:28.398Z,13.00
2022-10-07T18:14:18.575Z,14.20
2022-10-07T18:16:08.455Z,15.00
2022-10-07T18:17:41.086Z,15.60
2022-10-07T18:19:14.971Z,16.20
2022-10-07T18:20:46.729Z,16.00
2022-10-07T18:22:19.341Z,18.00
2022-10-07T18:23:52.331Z,11.40
2022-10-07T18:25:24.995Z,8.40
2022-10-07T18:26:59.028Z,17.00
2022-10-07T18:28:33.166Z,17.80
2022-10-07T18:30:06.763Z,14.20
2022-10-07T18:31:41.825Z,13.40
2022-10-07T18:33:13.506Z,16.40
2022-10-07T18:34:45.259Z,12.80
2022-10-07T18:36:18.708Z,11.00
2022-10-07T18:37:53.002Z,15.00
2022-10-07T18:39:27.430Z,16.40
2022-10-07T18:41:01.234Z,19.20
2022-10-07T18:42:36.484Z,20.40
2022-10-07T18:44:09.582Z,6.60
2022-10-07T18:45:41.783Z,24.00
2022-10-07T18:47:14.092Z,22.60
2022-10-07T18:48:50.035Z,28.00
2022-10-07T18:50:22.251Z,31.20
2022-10-07T18:51:54.723Z,29.20
2022-10-07T18:53:27.184Z,31.40
2022-10-07T18:54:59.293Z,35.20
2022-10-07T18:56:31.486Z,35.60
2022-10-07T18:58:03.583Z,42.75
2022-10-07T18:59:35.374Z,41.25
2022-10-07T19:01:14.679Z,42.00
2022-10-07T19:02:51.251Z,46.25
2022-10-07T19:04:23.468Z,47.75
2022-10-07T19:05:55.522Z,50.75
2022-10-07T19:07:28.926Z,49.50
2022-10-07T19:09:02.201Z,52.25
2022-10-07T19:10:38.749Z,50.00
2022-10-07T19:12:30.691Z,52.25
2022-10-07T19:14:03.363Z,54.25
2022-10-07T19:15:37.232Z,52.00
2022-10-07T19:17:10.665Z,49.25
2022-10-07T19:18:44.096Z,52.50
2022-10-07T19:20:18.238Z,53.25
2022-10-07T19:21:53.417Z,67.60
2022-10-07T19:23:27.979Z,61.00
2022-10-07T19:25:18.584Z,60.75
2022-10-07T19:26:50.385Z,64.00
2022-10-07T19:28:22.306Z,78.40
2022-10-07T19:29:54.087Z,63.20
2022-10-07T19:31:30.789Z,67.50
2022-10-07T19:33:02.568Z,62.75
2022-10-07T19:34:34.431Z,52.25
2022-10-07T19:36:07.035Z,49.25
2022-10-07T19:37:38.948Z,44.75
2022-10-07T19:39:10.857Z,47.00
2022-10-07T19:40:44.632Z,42.00
2022-10-07T19:42:18.213Z,46.25
2022-10-07T19:43:50.172Z,45.00
2022-10-07T19:45:22.634Z,42.50
2022-10-07T19:46:54.451Z,41.00
2022-10-07T19:48:27.393Z,41.75
2022-10-07T19:49:59.228Z,38.50
2022-10-07T19:51:31.664Z,39.25
2022-10-07T19:53:04.027Z,34.00
2022-10-07T19:54:39.729Z,32.80
2022-10-07T19:56:12.289Z,36.40
2022-10-07T19:57:44.505Z,35.80
2022-10-07T19:59:16.677Z,34.20
2022-10-07T20:00:48.537Z,34.00
2022-10-07T20:02:20.374Z,34.00
2022-10-07T20:04:13.249Z,37.80
2022-10-07T20:05:45.015Z,34.80
2022-10-07T20:07:18.124Z,34.75
2022-10-07T20:08:49.951Z,33.60
2022-10-07T20:10:22.021Z,35.80
2022-10-07T20:11:54.125Z,34.40
2022-10-07T20:13:25.910Z,34.20
2022-10-07T20:14:57.721Z,34.20
2022-10-07T20:16:29.548Z,32.60
2022-10-07T20:18:03.938Z,34.40
2022-10-07T20:19:35.741Z,34.20
2022-10-07T20:21:10.772Z,32.00
2022-10-07T20:22:45.828Z,33.00
2022-10-07T20:24:21.040Z,32.20
2022-10-07T20:25:52.834Z,32.00
2022-10-07T20:27:24.584Z,33.00
2022-10-07T20:28:57.770Z,33.20
2022-10-07T20:30:29.607Z,33.00
2022-10-07T20:32:01.364Z,31.60
2022-10-07T20:33:39.783Z,31.20
2022-10-07T20:35:12.746Z,31.40
2022-10-07T20:36:44.643Z,31.60
2022-10-07T20:38:16.429Z,31.20
2022-10-07T20:40:06.549Z,30.40
2022-10-07T20:41:56.692Z,32.40
2022-10-07T20:43:28.439Z,33.20
2022-10-07T20:45:00.374Z,32.00
2022-10-07T20:46:32.692Z,30.40
2022-10-07T20:48:05.280Z,29.20
2022-10-07T20:49:38.713Z,31.00
2022-10-07T20:51:10.512Z,32.40
2022-10-07T20:52:42.240Z,30.80
2022-10-07T20:54:14.020Z,30.40
2022-10-07T20:55:46.114Z,32.80
2022-10-07T20:57:19.867Z,32.20
2022-10-07T20:58:52.164Z,31.20
2022-10-07T21:00:23.835Z,31.60
2022-10-07T21:01:55.987Z,31.80
2022-10-07T21:03:29.815Z,31.20
2022-10-07T21:05:01.728Z,32.40
2022-10-07T21:06:33.510Z,33.00
2022-10-07T21:08:06.778Z,30.40
2022-10-07T21:09:39.909Z,30.20
2022-10-07T21:11:11.678Z,32.40
2022-10-07T21:12:44.578Z,29.60
2022-10-07T21:14:19.789Z,32.00
2022-10-07T21:15:51.594Z,31.00
2022-10-07T21:17:24.976Z,30.20
2022-10-07T21:18:56.951Z,30.20
2022-10-07T21:20:28.677Z,30.20
2022-10-07T21:22:00.519Z,27.80
2022-10-07T21:23:32.292Z,29.40
2022-10-07T21:25:04.439Z,29.40
2022-10-07T21:26:36.499Z,30.40
2022-10-07T21:28:08.213Z,31.20
2022-10-07T21:29:41.203Z,33.60
2022-10-07T21:31:17.405Z,31.60
2022-10-07T21:32:50.088Z,31.40
2022-10-07T21:34:21.771Z,30.80
2022-10-07T21:35:58.891Z,33.20
2022-10-07T21:37:30.563Z,31.80
2022-10-07T21:39:02.286Z,31.20
2022-10-07T21:40:34.011Z,31.40
2022-10-07T21:42:05.760Z,31.40
2022-10-07T21:43:37.872Z,32.40
2022-10-07T21:45:09.997Z,31.20
2022-10-07T21:46:46.406Z,30.80
2022-10-07T21:48:18.376Z,31.20
2022-10-07T21:49:51.163Z,30.00
2022-10-07T21:51:25.793Z,31.40
2022-10-07T21:52:57.504Z,27.00
2022-10-07T21:54:30.378Z,29.00
2022-10-07T21:56:10.436Z,30.00
2022-10-07T21:57:42.735Z,31.40
2022-10-07T21:59:14.494Z,31.00
2022-10-07T22:00:46.260Z,31.20
2022-10-07T22:02:18.881Z,49.25
2022-10-07T22:04:01.004Z,30.40
2022-10-07T22:05:35.799Z,28.20
2022-10-07T22:07:25.787Z,28.20
2022-10-07T22:08:57.522Z,31.20
2022-10-07T22:10:29.243Z,33.00
2022-10-07T22:12:01.061Z,39.75
2022-10-07T22:13:34.074Z,41.75
2022-10-07T22:15:06.497Z,42.00
2022-10-07T22:16:38.307Z,45.25
2022-10-07T22:18:11.112Z,47.75
2022-10-07T22:19:43.021Z,50.25
2022-10-07T22:21:21.957Z,82.50
2022-10-07T22:22:57.809Z,67.00
2022-10-07T22:24:31.539Z,57.25
2022-10-07T22:26:07.368Z,61.25
2022-10-07T22:27:39.115Z,60.75
2022-10-07T22:29:11.060Z,56.50
2022-10-07T22:30:43.024Z,61.75
2022-10-07T22:32:14.777Z,66.75
2022-10-07T22:33:51.672Z,67.50
